Time;durP1;ratioP1;P1;durP2;ratioP2;P2;SDS_P1;SDS_P2;PMS_P1;PMS_P2;Temp;Humidity;BMP_temperature;BMP_pressure;BME280_temperature;BME280_humidity;BME280_pressure;Samples;Min_cycle;Max_cycle;Signal;HPM_P1;HPM_P2
2022/08/31 00:04:55;;;;;;;0.80;0.10;;;17.00;80.90;;;;;;5128502;28;20455;-71
2022/08/31 00:07:22;;;;;;;1.55;0.10;;;17.00;80.80;;;;;;5118520;28;20443;-70
2022/08/31 00:09:48;;;;;;;0.22;0.10;;;17.00;81.20;;;;;;5121038;28;20423;-72
2022/08/31 00:12:14;;;;;;;0.47;0.10;;;17.00;80.90;;;;;;5117712;28;20543;-71
2022/08/31 00:14:39;;;;;;;0.43;0.10;;;16.90;81.20;;;;;;5124028;28;20487;-71
2022/08/31 00:17:05;;;;;;;1.77;0.15;;;16.90;81.40;;;;;;5119736;27;20395;-71
2022/08/31 00:19:31;;;;;;;1.37;0.10;;;16.90;81.20;;;;;;5117079;27;20766;-72
2022/08/31 00:21:56;;;;;;;4.15;0.50;;;16.80;80.90;;;;;;5139141;27;20406;-72
2022/08/31 00:24:22;;;;;;;0.63;0.10;;;16.80;81.00;;;;;;5146037;27;20416;-72
2022/08/31 00:26:48;;;;;;;1.23;0.30;;;16.90;81.30;;;;;;5128595;28;20407;-70
2022/08/31 00:29:14;;;;;;;0.90;0.10;;;16.80;81.40;;;;;;5145692;27;20399;-71
2022/08/31 00:31:40;;;;;;;0.90;0.10;;;16.80;81.70;;;;;;5150030;27;20426;-71
2022/08/31 00:34:06;;;;;;;0.80;0.20;;;16.70;81.80;;;;;;5133999;27;20762;-73
2022/08/31 00:36:32;;;;;;;0.55;0.10;;;16.70;81.70;;;;;;5121630;27;20398;-71
2022/08/31 00:38:58;;;;;;;0.40;0.15;;;16.70;81.70;;;;;;5117007;27;20435;-71
2022/08/31 00:41:27;;;;;;;1.10;0.10;;;16.70;82.00;;;;;;5131304;27;20395;-72
2022/08/31 00:44:02;;;;;;;1.08;0.10;;;16.60;82.00;;;;;;5109076;28;20408;-72
2022/08/31 00:46:37;;;;;;;1.40;0.10;;;16.60;81.80;;;;;;5110863;28;20537;-71
2022/08/31 00:49:05;;;;;;;0.68;0.20;;;16.60;81.90;;;;;;5117460;27;20509;-71
2022/08/31 00:51:36;;;;;;;0.73;0.10;;;16.50;82.00;;;;;;5125712;27;20478;-71
2022/08/31 00:54:03;;;;;;;0.65;0.10;;;16.60;82.10;;;;;;5131010;27;20398;-71
2022/08/31 00:56:30;;;;;;;1.25;0.13;;;16.50;81.90;;;;;;5131189;27;20395;-72
2022/08/31 00:58:56;;;;;;;1.05;0.10;;;16.50;81.90;;;;;;5125731;27;20406;-71
2022/08/31 01:01:22;;;;;;;1.25;0.13;;;16.50;82.20;;;;;;5127686;27;20474;-72
2022/08/31 01:03:48;;;;;;;1.30;0.10;;;16.50;82.50;;;;;;5126515;27;20915;-72
2022/08/31 01:06:16;;;;;;;0.20;0.10;;;16.40;82.30;;;;;;5124122;27;20742;-71
2022/08/31 01:08:44;;;;;;;0.60;0.10;;;16.40;82.10;;;;;;5126863;27;20436;-71
2022/08/31 01:11:11;;;;;;;2.50;0.40;;;16.40;82.40;;;;;;5130605;27;20506;-72
2022/08/31 01:13:36;;;;;;;0.30;0.10;;;16.40;82.50;;;;;;5122997;27;20397;-71
2022/08/31 01:16:10;;;;;;;3.00;0.20;;;16.40;82.50;;;;;;5110444;27;20901;-71
2022/08/31 01:18:37;;;;;;;1.70;0.10;;;16.40;82.50;;;;;;5119281;27;20405;-71
2022/08/31 01:21:26;;;;;;;0.38;0.10;;;16.30;82.80;;;;;;5114046;27;20415;-72
2022/08/31 01:23:55;;;;;;;1.47;0.20;;;16.30;83.00;;;;;;5109203;27;20744;-71
2022/08/31 01:26:24;;;;;;;0.60;0.10;;;16.30;83.20;;;;;;5109614;27;20407;-72
2022/08/31 01:28:51;;;;;;;0.93;0.20;;;16.30;83.10;;;;;;5108808;27;20898;-72
2022/08/31 01:31:32;;;;;;;1.05;0.10;;;16.30;83.00;;;;;;5126129;27;20450;-71
2022/08/31 01:33:58;;;;;;;0.60;0.10;;;16.30;82.80;;;;;;5116544;27;20426;-71
2022/08/31 01:36:24;;;;;;;1.60;0.20;;;16.20;82.80;;;;;;5121077;27;20404;-71
2022/08/31 01:38:50;;;;;;;0.80;0.10;;;16.30;83.00;;;;;;5098358;27;20543;-71
2022/08/31 01:41:16;;;;;;;0.60;0.10;;;16.20;83.20;;;;;;5120113;27;20491;-71
2022/08/31 01:43:41;;;;;;;0.95;0.10;;;16.20;83.60;;;;;;5122603;27;20395;-71
2022/08/31 01:46:11;;;;;;;0.50;0.10;;;16.20;83.70;;;;;;5116171;27;20445;-71
2022/08/31 01:48:39;;;;;;;1.03;0.10;;;16.20;83.80;;;;;;5116266;27;20517;-71
2022/08/31 01:51:05;;;;;;;1.10;0.10;;;16.10;84.00;;;;;;5116167;27;20829;-71
2022/08/31 01:53:31;;;;;;;0.90;0.10;;;16.10;84.10;;;;;;5129795;27;20546;-71
2022/08/31 01:55:57;;;;;;;0.88;0.10;;;16.10;84.50;;;;;;5116941;27;20479;-72
2022/08/31 01:58:23;;;;;;;0.63;0.05;;;16.10;84.60;;;;;;5116015;27;20408;-72
2022/08/31 02:00:49;;;;;;;0.75;0.10;;;16.00;84.90;;;;;;5122890;27;20398;-71
2022/08/31 02:03:15;;;;;;;1.50;0.20;;;16.00;85.10;;;;;;5094039;28;20403;-71
2022/08/31 02:05:40;;;;;;;0.68;0.10;;;16.00;85.50;;;;;;5110104;27;20483;-71
2022/08/31 02:08:08;;;;;;;1.53;0.20;;;16.00;86.10;;;;;;5122550;27;20781;-71
2022/08/31 02:10:34;;;;;;;1.17;0.10;;;16.00;86.50;;;;;;5109536;28;20963;-71
2022/08/31 02:13:00;;;;;;;1.40;0.10;;;16.00;86.20;;;;;;5109148;27;20790;-71
2022/08/31 02:15:25;;;;;;;1.17;0.20;;;16.00;86.20;;;;;;5122026;27;20395;-72
2022/08/31 02:17:51;;;;;;;1.70;0.10;;;16.00;86.70;;;;;;5111104;27;20402;-71
2022/08/31 02:20:18;;;;;;;0.30;0.10;;;15.90;87.10;;;;;;5129474;27;20402;-71
2022/08/31 02:22:43;;;;;;;1.13;0.10;;;15.90;87.30;;;;;;5122688;27;20886;-71
2022/08/31 02:25:10;;;;;;;2.90;0.20;;;15.90;87.70;;;;;;5122643;27;20752;-71
2022/08/31 02:27:36;;;;;;;1.08;0.10;;;15.90;87.90;;;;;;5122914;27;20388;-71
2022/08/31 02:30:08;;;;;;;0.73;0.10;;;15.90;88.70;;;;;;5122130;27;20397;-72
2022/08/31 02:32:33;;;;;;;1.75;0.10;;;15.80;88.20;;;;;;5098094;27;20437;-71
2022/08/31 02:34:59;;;;;;;0.53;0.10;;;15.80;88.80;;;;;;5115529;27;20404;-71
2022/08/31 02:37:24;;;;;;;1.55;0.10;;;15.80;88.80;;;;;;5122680;27;20411;-71
2022/08/31 02:39:50;;;;;;;1.57;0.20;;;15.80;89.50;;;;;;5121734;27;20402;-71
2022/08/31 02:42:16;;;;;;;0.70;0.15;;;15.80;89.90;;;;;;5122494;27;20770;-72
2022/08/31 02:44:41;;;;;;;0.73;0.10;;;15.80;90.10;;;;;;5122287;27;20441;-71
2022/08/31 02:47:07;;;;;;;1.60;0.20;;;15.80;90.20;;;;;;5128366;27;20895;-71
2022/08/31 02:49:32;;;;;;;0.80;0.30;;;15.80;90.20;;;;;;5128593;27;20513;-71
2022/08/31 02:51:58;;;;;;;1.17;0.10;;;15.80;90.20;;;;;;5115226;27;20433;-72
2022/08/31 02:54:24;;;;;;;1.48;0.10;;;15.80;90.20;;;;;;5110464;28;20442;-71
2022/08/31 02:56:49;;;;;;;0.33;0.10;;;15.80;90.10;;;;;;5115523;27;20410;-72
2022/08/31 02:59:15;;;;;;;1.17;0.10;;;15.80;90.30;;;;;;5128070;27;20441;-71
2022/08/31 03:01:41;;;;;;;1.10;0.20;;;15.80;90.10;;;;;;5122215;27;20901;-72
2022/08/31 03:04:07;;;;;;;1.20;0.20;;;15.80;90.10;;;;;;5120830;28;20391;-72
2022/08/31 03:06:33;;;;;;;0.90;0.20;;;15.80;90.20;;;;;;5120807;28;20439;-72
2022/08/31 03:08:59;;;;;;;1.75;0.20;;;15.70;90.20;;;;;;5109770;28;20436;-71
2022/08/31 03:11:25;;;;;;;0.70;0.20;;;15.70;90.30;;;;;;5115244;28;20487;-71
2022/08/31 03:13:51;;;;;;;0.52;0.20;;;15.70;90.40;;;;;;5116587;28;20404;-73
2022/08/31 03:16:17;;;;;;;0.60;0.20;;;15.70;90.50;;;;;;5111048;28;20417;-72
2022/08/31 03:18:44;;;;;;;0.70;0.13;;;15.70;90.70;;;;;;5119629;28;20481;-71
2022/08/31 03:21:10;;;;;;;1.13;0.30;;;15.60;90.80;;;;;;5128169;28;20490;-71
2022/08/31 03:23:37;;;;;;;1.00;0.20;;;15.60;90.80;;;;;;5128666;28;20486;-71
2022/08/31 03:26:04;;;;;;;0.98;0.20;;;15.60;91.20;;;;;;5092411;28;20636;-71
2022/08/31 03:28:31;;;;;;;1.03;0.20;;;15.60;91.20;;;;;;5118402;28;20415;-71
2022/08/31 03:30:57;;;;;;;2.15;0.20;;;15.50;91.30;;;;;;5109657;28;20785;-71
2022/08/31 03:33:23;;;;;;;0.55;0.15;;;15.50;91.30;;;;;;5118918;28;20403;-71
2022/08/31 03:35:48;;;;;;;0.40;0.20;;;15.50;91.40;;;;;;5114206;28;20408;-70
2022/08/31 03:38:15;;;;;;;1.40;0.10;;;15.50;91.50;;;;;;5127995;27;20430;-71
2022/08/31 03:40:43;;;;;;;0.80;0.20;;;15.40;91.60;;;;;;5127260;28;20407;-71
2022/08/31 03:43:10;;;;;;;0.98;0.15;;;15.40;91.60;;;;;;5119802;28;21185;-71
2022/08/31 03:45:36;;;;;;;0.45;0.13;;;15.40;91.90;;;;;;5122734;27;20421;-71
2022/08/31 03:48:05;;;;;;;0.60;0.20;;;15.30;92.00;;;;;;5128474;28;20479;-71
2022/08/31 03:50:32;;;;;;;1.13;0.20;;;15.40;92.10;;;;;;5120351;28;20435;-71
2022/08/31 03:52:58;;;;;;;0.52;0.10;;;15.30;92.10;;;;;;5113566;27;20428;-71
2022/08/31 03:55:27;;;;;;;0.80;0.28;;;15.30;92.60;;;;;;5132004;27;20413;-71
2022/08/31 03:57:52;;;;;;;0.90;0.20;;;15.30;92.60;;;;;;5117721;27;20430;-72
2022/08/31 04:00:18;;;;;;;1.00;0.10;;;15.20;92.70;;;;;;5123906;27;20404;-71
2022/08/31 04:02:43;;;;;;;1.33;0.20;;;15.20;92.90;;;;;;5127328;27;20748;-72
2022/08/31 04:05:12;;;;;;;1.00;0.20;;;15.20;92.90;;;;;;5131537;27;20493;-72
2022/08/31 04:07:38;;;;;;;1.75;0.20;;;15.20;93.20;;;;;;5118471;27;20411;-71
2022/08/31 04:10:04;;;;;;;1.60;0.17;;;15.10;93.10;;;;;;5123163;27;20407;-71
2022/08/31 04:12:30;;;;;;;1.50;0.30;;;15.10;93.30;;;;;;5127045;27;20445;-72
2022/08/31 04:14:56;;;;;;;2.17;0.30;;;15.20;93.40;;;;;;5131661;27;20391;-71
2022/08/31 04:17:21;;;;;;;0.80;0.20;;;15.10;93.40;;;;;;5129312;27;20449;-71
2022/08/31 04:19:47;;;;;;;1.40;0.30;;;15.10;93.40;;;;;;5122246;27;20841;-72
2022/08/31 04:22:13;;;;;;;0.73;0.20;;;15.10;93.70;;;;;;5099464;27;20910;-71
2022/08/31 04:24:38;;;;;;;1.00;0.20;;;15.10;93.80;;;;;;5123517;27;20407;-71
2022/08/31 04:27:04;;;;;;;1.20;0.20;;;15.10;93.90;;;;;;5124327;27;20946;-71
2022/08/31 04:29:30;;;;;;;1.63;0.20;;;15.10;94.00;;;;;;5111667;28;20415;-71
2022/08/31 04:31:56;;;;;;;1.00;0.40;;;15.10;94.10;;;;;;5112404;27;20785;-72
2022/08/31 04:34:22;;;;;;;1.65;0.20;;;15.10;94.30;;;;;;5123616;27;20409;-71
2022/08/31 04:36:47;;;;;;;1.00;0.20;;;15.00;94.40;;;;;;5124405;27;20455;-71
2022/08/31 04:39:13;;;;;;;1.08;0.10;;;15.00;94.50;;;;;;5118887;27;20398;-71
2022/08/31 04:41:40;;;;;;;0.82;0.20;;;15.00;94.60;;;;;;5115398;27;20906;-71
2022/08/31 04:44:06;;;;;;;0.98;0.20;;;15.00;94.70;;;;;;5118708;27;20417;-71
2022/08/31 04:46:35;;;;;;;1.00;0.20;;;15.00;94.80;;;;;;5116004;27;20895;-71
2022/08/31 04:49:00;;;;;;;1.55;0.13;;;15.00;94.90;;;;;;5111021;27;20404;-71
2022/08/31 04:51:29;;;;;;;0.95;0.20;;;15.00;94.90;;;;;;5126701;27;20418;-72
2022/08/31 04:53:56;;;;;;;0.52;0.20;;;15.00;95.10;;;;;;5121160;27;20407;-71
2022/08/31 04:56:27;;;;;;;0.73;0.10;;;15.00;95.10;;;;;;5112139;27;20398;-71
2022/08/31 04:58:56;;;;;;;0.50;0.20;;;15.00;95.20;;;;;;5111272;27;20397;-71
2022/08/31 05:01:26;;;;;;;1.05;0.20;;;15.00;95.50;;;;;;5112004;27;20404;-72
2022/08/31 05:03:54;;;;;;;0.98;0.15;;;15.00;95.60;;;;;;5121384;27;20401;-71
2022/08/31 05:06:23;;;;;;;1.33;0.40;;;15.00;95.70;;;;;;5113127;27;20457;-71
2022/08/31 05:08:57;;;;;;;0.73;0.22;;;15.00;96.00;;;;;;5111798;27;20483;-72
2022/08/31 05:11:24;;;;;;;1.10;0.30;;;15.00;96.10;;;;;;5117819;27;20516;-71
2022/08/31 05:13:49;;;;;;;0.85;0.20;;;15.00;96.20;;;;;;5116985;27;20400;-71
2022/08/31 05:16:16;;;;;;;1.80;0.50;;;15.00;96.30;;;;;;5111384;27;20400;-71
2022/08/31 05:18:44;;;;;;;1.85;0.40;;;15.00;96.30;;;;;;5123291;27;20390;-71
2022/08/31 05:21:18;;;;;;;1.15;0.25;;;15.00;96.40;;;;;;5115375;27;20399;-72
2022/08/31 05:23:46;;;;;;;1.17;0.20;;;15.00;96.50;;;;;;5109396;28;20445;-71
2022/08/31 05:26:20;;;;;;;0.70;0.20;;;15.00;96.50;;;;;;5117581;27;20410;-71
2022/08/31 05:28:46;;;;;;;1.00;0.17;;;15.10;96.50;;;;;;5128271;27;20405;-72
2022/08/31 05:31:12;;;;;;;1.23;0.10;;;15.10;96.60;;;;;;5110001;28;20994;-71
2022/08/31 05:33:38;;;;;;;0.60;0.20;;;15.10;96.60;;;;;;5117327;27;20398;-71
2022/08/31 05:36:04;;;;;;;0.50;0.30;;;15.10;96.60;;;;;;5129648;27;20402;-71
2022/08/31 05:38:30;;;;;;;0.82;0.20;;;15.20;96.60;;;;;;5126851;27;20473;-70
2022/08/31 05:40:57;;;;;;;0.93;0.30;;;15.20;96.70;;;;;;5119893;27;20394;-71
2022/08/31 05:43:23;;;;;;;1.55;0.20;;;15.30;96.70;;;;;;5116294;27;20416;-71
2022/08/31 05:45:49;;;;;;;1.00;0.27;;;15.30;96.60;;;;;;5117241;27;20442;-71
2022/08/31 05:48:15;;;;;;;1.25;0.45;;;15.30;96.50;;;;;;5124926;27;20479;-70
2022/08/31 05:50:41;;;;;;;2.20;0.20;;;15.30;96.40;;;;;;5119948;27;20788;-71
2022/08/31 05:53:07;;;;;;;1.17;0.20;;;15.40;96.60;;;;;;5123230;27;21273;-71
2022/08/31 05:55:33;;;;;;;1.55;0.40;;;15.40;96.50;;;;;;5116464;27;20407;-71
2022/08/31 05:57:59;;;;;;;1.52;0.20;;;15.50;96.80;;;;;;5109571;28;20833;-71
2022/08/31 06:00:25;;;;;;;2.53;0.40;;;15.50;96.90;;;;;;5122661;27;20403;-71
2022/08/31 06:02:51;;;;;;;2.05;0.40;;;15.60;97.10;;;;;;5108887;28;20495;-72
2022/08/31 06:05:17;;;;;;;1.55;0.32;;;15.70;97.20;;;;;;5123127;27;20413;-71
2022/08/31 06:07:44;;;;;;;1.83;0.30;;;15.70;97.50;;;;;;5119662;27;20399;-71
2022/08/31 06:10:10;;;;;;;0.95;0.20;;;15.80;97.50;;;;;;5129088;27;20446;-71
2022/08/31 06:12:37;;;;;;;1.80;0.30;;;15.80;97.50;;;;;;5119154;27;20485;-70
2022/08/31 06:15:03;;;;;;;1.10;0.30;;;15.90;97.40;;;;;;5125440;27;20409;-70
2022/08/31 06:17:31;;;;;;;0.80;0.30;;;15.90;97.60;;;;;;5119254;27;20400;-72
2022/08/31 06:19:57;;;;;;;1.43;0.30;;;15.90;97.60;;;;;;5113076;27;20409;-72
2022/08/31 06:22:24;;;;;;;1.08;0.28;;;16.00;97.90;;;;;;5128841;27;20398;-71
2022/08/31 06:24:50;;;;;;;0.95;0.22;;;16.00;97.80;;;;;;5124682;27;20396;-71
2022/08/31 06:27:16;;;;;;;1.13;0.30;;;16.00;97.90;;;;;;5119708;27;20451;-72
2022/08/31 06:29:42;;;;;;;1.40;0.20;;;16.00;97.60;;;;;;5111868;27;20439;-71
2022/08/31 06:32:09;;;;;;;2.08;0.60;;;16.10;97.50;;;;;;5118738;27;20873;-70
2022/08/31 06:34:36;;;;;;;2.10;0.30;;;16.10;97.30;;;;;;5125670;27;20407;-70
2022/08/31 06:37:04;;;;;;;1.20;0.20;;;16.10;97.20;;;;;;5119569;27;20413;-70
2022/08/31 06:39:29;;;;;;;1.00;0.28;;;16.20;97.10;;;;;;5129196;27;20399;-70
2022/08/31 06:41:55;;;;;;;1.40;0.40;;;16.20;97.00;;;;;;5128885;27;20741;-70
2022/08/31 06:44:22;;;;;;;1.67;0.30;;;16.30;97.00;;;;;;5128568;27;20415;-70
2022/08/31 06:46:50;;;;;;;1.38;0.20;;;16.30;97.00;;;;;;5128913;27;20509;-71
2022/08/31 06:49:16;;;;;;;3.55;0.30;;;16.30;96.90;;;;;;5129009;27;20753;-71
2022/08/31 06:51:42;;;;;;;1.13;0.30;;;16.40;96.70;;;;;;5128892;27;20882;-71
2022/08/31 06:54:10;;;;;;;1.52;0.22;;;16.40;96.60;;;;;;5114818;27;20398;-71
2022/08/31 06:56:36;;;;;;;2.22;0.25;;;16.50;96.30;;;;;;5128338;27;20757;-70
2022/08/31 06:59:04;;;;;;;1.45;0.22;;;16.50;96.30;;;;;;5115486;27;20406;-71
2022/08/31 07:01:31;;;;;;;1.45;0.20;;;16.50;96.30;;;;;;5128775;27;20532;-72
2022/08/31 07:03:59;;;;;;;1.43;0.20;;;16.60;96.20;;;;;;5122043;27;20467;-70
2022/08/31 07:06:28;;;;;;;1.48;0.30;;;16.60;96.40;;;;;;5108259;28;20400;-71
2022/08/31 07:08:57;;;;;;;1.48;0.30;;;16.60;96.20;;;;;;5108357;28;20929;-72
2022/08/31 07:11:33;;;;;;;0.77;0.20;;;16.70;96.40;;;;;;5121915;28;20415;-72
2022/08/31 07:13:59;;;;;;;0.95;0.20;;;16.80;96.60;;;;;;5108281;28;20396;-73
2022/08/31 07:16:26;;;;;;;1.23;0.20;;;16.80;96.40;;;;;;5123255;28;20760;-71
2022/08/31 07:18:53;;;;;;;1.25;0.20;;;16.90;96.20;;;;;;5109756;28;20398;-72
2022/08/31 07:21:28;;;;;;;1.08;0.38;;;16.90;96.10;;;;;;5127950;28;20402;-72
2022/08/31 07:23:57;;;;;;;2.20;0.28;;;16.90;96.10;;;;;;5128744;28;20407;-72
2022/08/31 07:26:26;;;;;;;0.95;0.30;;;17.00;95.90;;;;;;5130761;27;20399;-71
2022/08/31 07:28:56;;;;;;;1.92;0.40;;;17.10;95.90;;;;;;5132800;27;20401;-72
2022/08/31 07:31:25;;;;;;;1.92;0.28;;;17.10;95.80;;;;;;5132148;27;20422;-71
2022/08/31 07:33:54;;;;;;;1.50;0.20;;;17.10;95.80;;;;;;5132444;27;20409;-71
2022/08/31 07:36:21;;;;;;;1.50;0.30;;;17.20;96.00;;;;;;5118937;27;20402;-71
2022/08/31 07:44:17;;;;;;;0.65;0.20;;;17.30;95.70;;;;;;5128762;27;20411;-71
2022/08/31 07:46:44;;;;;;;0.73;0.22;;;17.40;95.70;;;;;;5112236;27;20419;-72
2022/08/31 07:49:13;;;;;;;0.90;0.20;;;17.50;95.80;;;;;;5094340;28;20492;-72
2022/08/31 07:51:49;;;;;;;1.13;0.25;;;17.50;95.70;;;;;;5117108;27;20457;-72
2022/08/31 07:54:19;;;;;;;0.95;0.20;;;17.60;95.70;;;;;;5131615;27;20439;-72
2022/08/31 07:56:49;;;;;;;3.08;0.20;;;17.60;95.60;;;;;;5121506;28;21408;-71
2022/08/31 07:59:17;;;;;;;4.47;0.45;;;17.70;95.70;;;;;;5126104;28;20428;-71
2022/08/31 08:01:43;;;;;;;1.60;0.30;;;17.70;95.70;;;;;;5131142;27;20407;-71
2022/08/31 08:04:14;;;;;;;1.05;0.20;;;17.80;95.70;;;;;;5101862;28;20475;-72
2022/08/31 08:06:40;;;;;;;1.80;0.20;;;17.90;95.60;;;;;;5113244;27;20446;-71
2022/08/31 08:09:06;;;;;;;1.52;0.30;;;17.90;95.50;;;;;;5113061;27;20817;-71
2022/08/31 08:11:35;;;;;;;0.98;0.20;;;18.00;95.40;;;;;;5111467;28;20427;-71
2022/08/31 08:14:02;;;;;;;0.88;0.20;;;18.10;95.30;;;;;;5120133;27;20695;-71
2022/08/31 08:16:28;;;;;;;1.05;0.10;;;18.20;95.00;;;;;;5132050;27;20452;-72
2022/08/31 08:18:54;;;;;;;1.40;0.20;;;18.30;94.90;;;;;;5130696;27;20401;-71
2022/08/31 08:21:20;;;;;;;0.80;0.20;;;18.40;94.60;;;;;;5130551;27;20406;-71
2022/08/31 08:23:46;;;;;;;2.38;0.30;;;18.40;94.60;;;;;;5111954;27;20814;-72
2022/08/31 08:26:12;;;;;;;1.00;0.20;;;18.50;94.40;;;;;;5125757;27;20430;-71
2022/08/31 08:28:38;;;;;;;0.80;0.20;;;18.60;94.00;;;;;;5123487;27;20465;-71
2022/08/31 08:31:05;;;;;;;1.20;0.10;;;18.70;93.50;;;;;;5099618;27;20812;-72
2022/08/31 08:33:32;;;;;;;1.98;0.20;;;18.80;93.40;;;;;;5147027;27;20402;-72
2022/08/31 08:36:06;;;;;;;1.65;0.17;;;18.80;92.80;;;;;;5152146;27;20481;-71
2022/08/31 08:38:32;;;;;;;1.50;0.20;;;18.90;92.80;;;;;;5151231;27;20484;-71
2022/08/31 08:40:59;;;;;;;1.60;0.17;;;19.00;92.70;;;;;;5152418;27;20403;-73
2022/08/31 08:43:31;;;;;;;1.85;0.22;;;19.00;92.00;;;;;;5150619;27;20478;-71
2022/08/31 08:46:00;;;;;;;0.60;0.10;;;19.00;91.90;;;;;;5141771;27;20921;-71
2022/08/31 08:48:29;;;;;;;3.30;0.52;;;19.10;91.70;;;;;;5132804;27;20460;-72
2022/08/31 08:50:56;;;;;;;2.22;0.47;;;19.20;91.70;;;;;;5096739;28;20774;-71
2022/08/31 08:53:24;;;;;;;2.70;0.30;;;19.30;91.70;;;;;;5111633;27;20827;-70
2022/08/31 08:55:51;;;;;;;2.50;0.20;;;19.40;91.50;;;;;;5112613;27;20408;-71
2022/08/31 08:58:18;;;;;;;1.50;0.10;;;19.50;91.60;;;;;;5122455;27;20406;-71
2022/08/31 09:00:50;;;;;;;0.43;0.20;;;19.70;91.30;;;;;;5125193;27;20408;-71
2022/08/31 09:03:45;;;;;;;0.50;0.13;;;19.80;91.10;;;;;;5124148;27;20445;-71
2022/08/31 09:06:39;;;;;;;2.30;0.20;;;20.00;90.60;;;;;;5112401;27;20414;-71
2022/08/31 09:09:29;;;;;;;2.25;0.20;;;20.00;90.00;;;;;;5092498;28;20502;-70
2022/08/31 09:12:10;;;;;;;1.58;0.20;;;19.90;89.60;;;;;;5114780;27;21061;-71
2022/08/31 09:14:58;;;;;;;0.50;0.10;;;19.90;90.30;;;;;;5130933;27;20448;-71
2022/08/31 09:17:37;;;;;;;1.13;0.20;;;20.00;89.00;;;;;;5098081;28;20442;-72
2022/08/31 09:20:04;;;;;;;0.80;0.10;;;20.20;88.90;;;;;;5123312;27;20405;-71
2022/08/31 09:22:49;;;;;;;0.88;0.10;;;20.50;90.10;;;;;;5122400;27;20395;-72
2022/08/31 09:25:31;;;;;;;0.52;0.13;;;21.40;89.00;;;;;;5117605;27;20411;-71
2022/08/31 09:28:00;;;;;;;1.37;0.17;;;22.50;87.40;;;;;;5127636;27;20430;-72
2022/08/31 09:30:43;;;;;;;0.68;0.20;;;23.30;84.90;;;;;;5111658;27;20455;-70
2022/08/31 09:33:22;;;;;;;0.95;0.10;;;23.90;80.60;;;;;;5122603;27;20835;-69
2022/08/31 09:35:54;;;;;;;0.50;0.10;;;24.40;79.90;;;;;;5122868;27;20484;-70
2022/08/31 09:38:37;;;;;;;1.83;0.20;;;24.70;80.40;;;;;;5129113;27;20528;-71
2022/08/31 09:41:11;;;;;;;1.15;0.10;;;25.20;78.70;;;;;;5116987;27;20406;-71
2022/08/31 09:43:37;;;;;;;0.77;0.20;;;25.60;75.00;;;;;;5112845;27;20420;-71
2022/08/31 09:46:10;;;;;;;1.07;0.20;;;25.90;75.20;;;;;;5128975;27;20402;-70
2022/08/31 09:48:55;;;;;;;2.05;0.22;;;25.50;70.70;;;;;;5111357;27;20417;-70
2022/08/31 09:51:23;;;;;;;1.15;0.10;;;25.20;74.30;;;;;;5119413;27;20416;-72
2022/08/31 09:56:54;;;;;;;1.33;0.10;;;26.10;70.70;;;;;;5122268;27;20449;-71
2022/08/31 09:59:45;;;;;;;0.40;0.10;;;26.40;70.70;;;;;;5117838;27;20403;-71
2022/08/31 10:02:21;;;;;;;0.98;0.08;;;26.70;69.30;;;;;;5122737;27;20955;-70
2022/08/31 10:05:43;;;;;;;1.67;0.20;;;26.90;68.50;;;;;;5115900;27;20469;-71
2022/08/31 10:08:29;;;;;;;1.60;0.13;;;27.20;67.90;;;;;;5082692;27;20399;-70
2022/08/31 10:10:57;;;;;;;0.30;0.10;;;27.50;61.80;;;;;;5112361;27;20404;-71
2022/08/31 10:13:40;;;;;;;1.00;0.10;;;27.70;60.60;;;;;;5107697;28;20401;-71
2022/08/31 10:16:29;;;;;;;0.80;0.00;;;27.60;62.30;;;;;;5128903;27;20773;-70
2022/08/31 10:19:06;;;;;;;1.55;0.15;;;27.80;63.00;;;;;;5126844;27;20394;-71
2022/08/31 10:21:42;;;;;;;0.80;0.20;;;27.90;61.40;;;;;;5109344;27;20496;-70
2022/08/31 10:24:32;;;;;;;1.87;0.30;;;28.00;61.30;;;;;;5128460;27;20507;-71
2022/08/31 10:27:14;;;;;;;1.35;0.10;;;28.40;60.40;;;;;;5127518;27;20475;-70
2022/08/31 10:29:51;;;;;;;0.40;0.17;;;28.70;58.70;;;;;;5109498;27;20436;-71
2022/08/31 10:32:23;;;;;;;0.68;0.10;;;28.70;60.30;;;;;;5127378;27;20928;-71
2022/08/31 10:35:07;;;;;;;0.85;0.13;;;29.00;59.90;;;;;;5116048;27;20485;-70
2022/08/31 10:37:42;;;;;;;0.82;0.10;;;29.20;57.60;;;;;;5099162;27;20433;-71
2022/08/31 10:40:20;;;;;;;0.30;0.10;;;29.00;55.90;;;;;;5116844;27;20108;-71
2022/08/31 10:42:56;;;;;;;;;;;28.80;54.80;;;;;;5130893;27;20047;-70
2022/08/31 10:45:23;;;;;;;;;;;29.00;54.70;;;;;;5130564;27;19919;-70
2022/08/31 10:47:51;;;;;;;;;;;29.10;56.00;;;;;;5130772;27;20381;-71
2022/08/31 10:50:38;;;;;;;0.20;0.00;;;29.30;56.80;;;;;;5117029;27;19991;-72
2022/08/31 10:53:14;;;;;;;0.60;0.10;;;29.30;54.90;;;;;;5129400;27;20062;-70
2022/08/31 10:55:50;;;;;;;;;;;29.30;56.90;;;;;;5130678;27;20500;-71
2022/08/31 10:58:22;;;;;;;;;;;29.40;55.90;;;;;;5130668;27;20373;-70
2022/08/31 11:00:51;;;;;;;;;;;29.50;56.30;;;;;;5116525;27;20377;-69
2022/08/31 11:03:45;;;;;;;2.58;0.20;;;29.50;53.70;;;;;;5117518;27;19927;-69
2022/08/31 11:06:43;;;;;;;2.25;0.20;;;29.40;54.20;;;;;;5116544;28;20039;-69
2022/08/31 11:09:20;;;;;;;1.17;0.20;;;29.50;53.90;;;;;;5126762;28;20932;-70
2022/08/31 11:12:05;;;;;;;0.55;0.10;;;29.70;54.00;;;;;;5127868;27;20504;-70
2022/08/31 11:14:50;;;;;;;1.10;0.50;;;29.70;53.50;;;;;;5115117;28;20437;-70
2022/08/31 11:17:25;;;;;;;1.75;0.10;;;29.80;54.30;;;;;;5128515;28;20413;-69
2022/08/31 11:19:56;;;;;;;;;;;29.90;51.50;;;;;;5130816;28;20107;-70
2022/08/31 11:22:36;;;;;;;;;;;29.90;52.70;;;;;;5116172;28;19923;-71
2022/08/31 11:25:13;;;;;;;;;;;30.10;54.00;;;;;;5117735;28;19973;-71
2022/08/31 11:27:43;;;;;;;;;;;30.30;54.40;;;;;;5117834;27;20452;-71
2022/08/31 11:30:23;;;;;;;;;;;30.40;52.80;;;;;;5116790;28;20452;-70
2022/08/31 11:32:51;;;;;;;;;;;30.40;53.00;;;;;;5129770;28;19920;-71
2022/08/31 11:35:46;;;;;;;0.88;0.20;;;30.50;52.20;;;;;;5125760;28;19938;-71
2022/08/31 11:38:48;;;;;;;1.60;0.20;;;30.40;51.70;;;;;;5121660;27;20459;-70
2022/08/31 11:42:00;;;;;;;0.40;0.10;;;30.40;52.20;;;;;;5120377;27;20410;-71
2022/08/31 11:44:29;;;;;;;0.30;0.10;;;30.60;52.40;;;;;;5116639;28;20422;-70
2022/08/31 11:47:08;;;;;;;;;;;30.80;52.10;;;;;;5124083;27;20421;-71
2022/08/31 11:49:38;;;;;;;;;;;30.90;50.00;;;;;;5123884;28;19925;-70
2022/08/31 11:52:11;;;;;;;0.32;0.00;;;30.80;50.20;;;;;;5103546;28;20386;-70
2022/08/31 11:54:40;;;;;;;0.85;0.10;;;30.80;48.60;;;;;;5122773;27;20158;-70
2022/08/31 11:57:14;;;;;;;0.75;0.10;;;30.80;48.50;;;;;;5107982;28;20055;-70
2022/08/31 11:59:45;;;;;;;1.17;0.03;;;30.70;47.20;;;;;;5109000;28;20031;-71
2022/08/31 12:02:19;;;;;;;0.20;0.10;;;30.60;49.30;;;;;;5120864;28;20398;-70
2022/08/31 12:04:45;;;;;;;;;;;30.60;49.10;;;;;;5115937;28;20046;-71
2022/08/31 12:07:12;;;;;;;;;;;30.70;47.80;;;;;;5130056;28;19923;-70
2022/08/31 12:09:51;;;;;;;;;;;30.60;48.90;;;;;;5130089;28;19920;-71
2022/08/31 12:12:18;;;;;;;;;;;30.60;47.80;;;;;;5118091;27;19930;-71
2022/08/31 12:14:57;;;;;;;;;;;30.60;48.60;;;;;;5134043;27;19970;-70
2022/08/31 12:17:29;;;;;;;;;;;30.60;48.70;;;;;;5130117;27;20411;-71
2022/08/31 12:20:07;;;;;;;;;;;30.80;48.10;;;;;;5113500;28;20014;-71
2022/08/31 12:23:36;;;;;;;1.05;0.10;;;31.00;46.70;;;;;;5113038;28;20010;-70
2022/08/31 12:26:21;;;;;;;2.10;0.10;;;31.10;47.60;;;;;;5120604;27;20050;-70
2022/08/31 12:29:18;;;;;;;0.13;0.10;;;31.20;47.60;;;;;;5119186;27;20142;-70
2022/08/31 12:31:58;;;;;;;;;;;31.20;47.70;;;;;;5119785;27;20118;-71
2022/08/31 12:34:24;;;;;;;;;;;31.40;47.90;;;;;;5132899;27;19919;-71
2022/08/31 12:36:49;;;;;;;0.68;0.13;;;31.70;48.10;;;;;;5129581;27;19930;-71
2022/08/31 12:39:23;;;;;;;;;;;32.00;47.90;;;;;;5112640;28;20078;-71
2022/08/31 12:41:58;;;;;;;2.20;0.10;;;32.20;46.60;;;;;;5112337;27;19919;-70
2022/08/31 12:44:35;;;;;;;0.90;0.10;;;32.10;47.10;;;;;;5124121;27;20087;-71
2022/08/31 12:47:39;;;;;;;0.30;0.10;;;32.10;46.20;;;;;;5125904;27;20083;-71
2022/08/31 12:50:29;;;;;;;1.42;0.10;;;32.20;47.60;;;;;;5125403;27;20402;-71
2022/08/31 12:53:24;;;;;;;0.85;0.10;;;32.30;47.20;;;;;;5111967;28;20044;-71
2022/08/31 12:55:54;;;;;;;;;;;32.40;46.80;;;;;;5125586;27;20043;-70
2022/08/31 12:58:35;;;;;;;;;;;32.60;45.90;;;;;;5119371;27;19919;-71
2022/08/31 13:01:06;;;;;;;;;;;32.50;45.00;;;;;;5132628;27;19919;-71
2022/08/31 13:03:31;;;;;;;;;;;32.30;46.30;;;;;;5123327;27;19920;-70
2022/08/31 13:06:12;;;;;;;0.20;0.05;;;32.30;46.00;;;;;;5125569;27;20537;-71
2022/08/31 13:08:45;;;;;;;0.30;0.10;;;32.30;46.20;;;;;;5123809;27;20043;-70
2022/08/31 13:11:38;;;;;;;5.50;0.73;;;32.40;46.40;;;;;;5131931;27;20063;-70
2022/08/31 13:14:17;;;;;;;1.52;0.10;;;32.60;46.50;;;;;;5115196;27;20046;-71
2022/08/31 13:16:45;;;;;;;2.30;0.40;;;32.70;46.30;;;;;;5123095;27;20043;-70
2022/08/31 13:19:17;;;;;;;;;;;32.70;45.50;;;;;;5119304;27;20374;-70
2022/08/31 13:21:47;;;;;;;;;;;32.70;46.70;;;;;;5119661;27;20412;-71
2022/08/31 13:24:13;;;;;;;2.15;0.10;;;32.90;46.90;;;;;;5124473;27;19920;-70
2022/08/31 13:26:38;;;;;;;;;;;33.20;45.90;;;;;;5125581;27;20050;-71